Paoli, IN (47454)

8:42 AM EDT on September 01, 2015 (GMT -0400)
RF Hill | | Change Station
CLOSE
Current Station
Personal Weather Station
Location: Paoli, IN
Elevation: 827 ft
Nearby Weather Stations

Elev 827 ft 38.54 °N, 86.46 °W | Updated 8 minutes ago

Clear
Clear
69.9 °F
Feels Like 69.9 °F
N
0.0
Wind Variable Wind from SSW

Today
High -- | Low -- °F
--% Chance of Precip.
Yesterday
High -- | Low -- °F
Precip. -- in
7:14 AM 8:16 PM
Waning Gibbous, 89% visible
Pressure 30.13 in
Visibility 5.0 miles
Clouds Clear
Dew Point 63 °F
Humidity 79%
Rainfall 0.00 in
Snow Depth Not available.
UV 1 out of 12
Pollen 10.00 out of 12
Air Quality Not available.
Flu Activity Not available.
METAR KDCY 011215Z AUTO 00000KT 5SM BR CLR 20/18 A3013 RMK AO2 LTG DSNT NW T02020181
Pressure 30.13 in
Visibility 5.0 miles
Clouds Clear
Dew Point 63 °F
Humidity 79%
Rainfall 0.00 in
Snow Depth Not available.
UV 1 out of 12
Pollen 10.00 out of 12
Air Quality Not available.
Flu Activity Not available.
METAR KDCY 011215Z AUTO 00000KT 5SM BR CLR 20/18 A3013 RMK AO2 LTG DSNT NW T02020181

10-Day Weather Forecast

×

Almanac

Astronomy

Sep. 01, 2015 Rise Set
Actual Time
Civil Twilight
Nautical Twilight
Astronomical Twilight
Moon
Length of Visible Light
Length of Day
Tomorrow will be .
, % of the Moon is Illuminated

Today's Extremes

State Highs State Lows

Community

WunderPhotos

Upload Photos

1,851,510 photos uploaded!

WunderBlogs® & News

Nearby

Air Quality

  Air Quality AQ Index Pollutant
Not available.

Snow Depth

Station Depth Elevation

Earthquake Activity

City Distance Mag. Time & Date
Minimum magnitude displayed is 2.5.

Coastal Water Temperatures

Place Temperature

Stations

Nearby Weather Stations

Station Location Temp. Windchill Dew Point Humidity Wind Precip. Elev Updated Type